createdAt,value
2023-01-30T00:00:02.658Z,17.45
2023-01-30T00:00:15.000Z,18.20
2023-01-30T00:00:27.309Z,19.50
2023-01-30T00:00:39.196Z,21.08
2023-01-30T00:00:56.214Z,21.20
2023-01-30T00:01:14.801Z,19.20
2023-01-30T00:01:30.272Z,19.33
2023-01-30T00:01:43.664Z,18.70
2023-01-30T00:01:55.744Z,20.23
2023-01-30T00:02:07.748Z,21.55
2023-01-30T00:02:19.766Z,20.00
2023-01-30T00:02:31.678Z,18.33
2023-01-30T00:02:43.565Z,18.00
2023-01-30T00:02:55.501Z,19.20
2023-01-30T00:03:07.460Z,18.15
2023-01-30T00:03:20.577Z,18.75
2023-01-30T00:03:32.858Z,18.55
2023-01-30T00:03:45.418Z,18.88
2023-01-30T00:03:57.368Z,20.15
2023-01-30T00:04:09.698Z,19.30
2023-01-30T00:04:21.593Z,17.70
2023-01-30T00:04:33.612Z,17.65
2023-01-30T00:04:45.896Z,17.63
2023-01-30T00:04:58.065Z,18.30
2023-01-30T00:05:10.152Z,19.35
2023-01-30T00:05:22.227Z,19.85
2023-01-30T00:05:34.152Z,19.05
2023-01-30T00:05:46.130Z,19.65
2023-01-30T00:05:58.207Z,21.05
2023-01-30T00:06:10.719Z,21.30
2023-01-30T00:06:24.268Z,20.83
2023-01-30T00:06:37.218Z,20.85
2023-01-30T00:06:51.437Z,20.50
2023-01-30T00:07:03.428Z,20.63
2023-01-30T00:07:15.317Z,19.80
2023-01-30T00:07:27.293Z,19.88
2023-01-30T00:07:39.223Z,19.27
2023-01-30T00:07:51.519Z,20.08
2023-01-30T00:08:03.587Z,19.83
2023-01-30T00:08:16.231Z,20.13
2023-01-30T00:08:28.214Z,19.95
2023-01-30T00:08:40.242Z,19.73
2023-01-30T00:08:52.763Z,18.45
2023-01-30T00:09:05.177Z,19.23
2023-01-30T00:09:17.163Z,18.80
2023-01-30T00:09:29.099Z,19.70
2023-01-30T00:09:41.175Z,19.40
2023-01-30T00:09:53.067Z,19.50
2023-01-30T00:10:05.340Z,19.40
2023-01-30T00:10:17.605Z,18.15
2023-01-30T00:10:29.729Z,17.98
2023-01-30T00:10:42.009Z,17.50
2023-01-30T00:10:54.002Z,18.05
2023-01-30T00:11:08.227Z,18.23
2023-01-30T00:11:20.925Z,19.08
2023-01-30T00:11:33.393Z,19.63
2023-01-30T00:11:45.405Z,18.63
2023-01-30T00:11:57.389Z,18.08
2023-01-30T00:12:09.358Z,19.05
2023-01-30T00:12:21.331Z,19.42
2023-01-30T00:12:33.286Z,19.23
2023-01-30T00:12:45.428Z,18.27
2023-01-30T00:12:59.489Z,17.85
2023-01-30T00:13:12.086Z,19.40
2023-01-30T00:13:24.051Z,19.33
2023-01-30T00:13:36.590Z,18.48
2023-01-30T00:13:49.864Z,20.30
2023-01-30T00:14:01.963Z,20.50
2023-01-30T00:14:13.905Z,19.60
2023-01-30T00:14:25.804Z,19.65
2023-01-30T00:14:37.697Z,19.90
2023-01-30T00:14:49.620Z,18.90
2023-01-30T00:15:01.563Z,18.85
2023-01-30T00:15:13.465Z,19.88
2023-01-30T00:15:25.426Z,20.60
2023-01-30T00:15:37.709Z,20.52
2023-01-30T00:15:49.646Z,20.85
2023-01-30T00:16:01.956Z,21.50
2023-01-30T00:16:14.056Z,21.17
2023-01-30T00:16:26.202Z,21.80
2023-01-30T00:16:38.385Z,22.08
2023-01-30T00:16:50.341Z,22.67
2023-01-30T00:17:02.219Z,20.58
2023-01-30T00:17:14.225Z,20.92
2023-01-30T00:17:26.167Z,21.90
2023-01-30T00:17:38.516Z,21.35
2023-01-30T00:17:50.453Z,20.50
2023-01-30T00:18:02.427Z,19.30
2023-01-30T00:18:14.571Z,19.00
2023-01-30T00:18:26.551Z,19.77
2023-01-30T00:18:39.878Z,21.17
2023-01-30T00:18:51.957Z,21.00
2023-01-30T00:19:03.998Z,21.55
2023-01-30T00:19:18.714Z,20.38
2023-01-30T00:19:30.673Z,18.25
2023-01-30T00:19:42.587Z,18.80
2023-01-30T00:19:54.523Z,18.95
2023-01-30T00:20:06.742Z,19.73
2023-01-30T00:20:19.395Z,20.63
2023-01-30T00:20:31.791Z,21.02
2023-01-30T00:20:43.706Z,21.20
2023-01-30T00:21:00.000Z,21.42
2023-01-30T00:21:14.486Z,21.00
2023-01-30T00:21:26.485Z,19.35
2023-01-30T00:21:38.420Z,19.13
2023-01-30T00:21:50.344Z,20.25
2023-01-30T00:22:02.307Z,19.63
2023-01-30T00:22:14.251Z,19.38
2023-01-30T00:22:26.253Z,19.88
2023-01-30T00:22:38.844Z,18.38
2023-01-30T00:23:00.400Z,19.88
2023-01-30T00:23:13.061Z,18.85
2023-01-30T00:23:26.655Z,17.85
2023-01-30T00:23:38.796Z,18.90
2023-01-30T00:23:50.729Z,19.13
2023-01-30T00:24:05.677Z,21.35
2023-01-30T00:24:17.788Z,20.80
2023-01-30T00:24:29.924Z,19.65
2023-01-30T00:24:41.984Z,20.48
2023-01-30T00:24:54.035Z,22.30
2023-01-30T00:25:06.749Z,22.58
2023-01-30T00:25:18.859Z,22.30
2023-01-30T00:25:31.555Z,20.50
2023-01-30T00:25:48.004Z,19.20
2023-01-30T00:26:00.431Z,20.42
2023-01-30T00:26:13.081Z,20.08
2023-01-30T00:26:26.616Z,19.27
2023-01-30T00:26:38.631Z,19.35
2023-01-30T00:26:50.661Z,20.52
2023-01-30T00:27:05.321Z,21.60
2023-01-30T00:27:17.532Z,19.58
2023-01-30T00:27:30.258Z,17.98
2023-01-30T00:27:42.175Z,20.15
2023-01-30T00:27:54.167Z,21.58
2023-01-30T00:28:06.062Z,21.48
2023-01-30T00:28:18.101Z,21.33
2023-01-30T00:28:30.046Z,20.70
2023-01-30T00:28:44.896Z,21.15
2023-01-30T00:28:56.850Z,21.52
2023-01-30T00:29:11.436Z,21.40
2023-01-30T00:29:23.457Z,20.15
2023-01-30T00:29:35.455Z,19.52
2023-01-30T00:29:57.674Z,19.02
2023-01-30T00:30:14.509Z,22.10
2023-01-30T00:30:26.506Z,21.10
2023-01-30T00:30:38.503Z,20.75
2023-01-30T00:30:51.879Z,20.60
2023-01-30T00:31:04.044Z,21.45
2023-01-30T00:31:15.991Z,21.40
2023-01-30T00:31:27.990Z,19.88
2023-01-30T00:31:39.969Z,20.45
2023-01-30T00:31:52.153Z,21.00
2023-01-30T00:32:04.283Z,21.30
2023-01-30T00:32:16.259Z,21.30
2023-01-30T00:32:28.536Z,20.20
2023-01-30T00:32:40.503Z,20.38
2023-01-30T00:32:59.554Z,20.23
2023-01-30T00:33:11.547Z,18.90
2023-01-30T00:33:25.739Z,18.83
2023-01-30T00:33:39.097Z,20.33
2023-01-30T00:33:50.981Z,20.98
2023-01-30T00:34:02.908Z,20.02
2023-01-30T00:34:17.792Z,20.30
2023-01-30T00:34:29.734Z,21.30
2023-01-30T00:34:41.608Z,22.00
2023-01-30T00:34:53.507Z,22.25
2023-01-30T00:35:06.909Z,22.00
2023-01-30T00:35:18.888Z,20.52
2023-01-30T00:35:30.885Z,20.38
2023-01-30T00:35:47.029Z,20.13
2023-01-30T00:36:01.585Z,20.50
2023-01-30T00:36:13.529Z,20.60
2023-01-30T00:36:25.437Z,20.02
2023-01-30T00:36:37.606Z,19.98
2023-01-30T00:37:02.492Z,20.08
2023-01-30T00:37:19.219Z,20.02
2023-01-30T00:37:31.184Z,21.40
2023-01-30T00:37:43.097Z,21.23
2023-01-30T00:37:57.435Z,20.88
2023-01-30T00:38:10.268Z,20.88
2023-01-30T00:38:23.417Z,22.05
2023-01-30T00:38:35.689Z,20.73
2023-01-30T00:38:47.633Z,19.90
2023-01-30T00:38:59.594Z,20.95
2023-01-30T00:39:11.498Z,22.50
2023-01-30T00:39:23.477Z,20.52
2023-01-30T00:39:35.372Z,20.67
2023-01-30T00:39:47.304Z,21.55
2023-01-30T00:39:59.310Z,21.63
2023-01-30T00:40:11.897Z,20.23
2023-01-30T00:40:25.634Z,20.52
2023-01-30T00:40:37.627Z,21.05
2023-01-30T00:40:49.848Z,20.85
2023-01-30T00:41:02.069Z,20.48
2023-01-30T00:41:15.438Z,20.13
2023-01-30T00:41:47.797Z,19.25
2023-01-30T00:42:18.138Z,20.20
2023-01-30T00:42:48.417Z,20.63
2023-01-30T00:43:18.783Z,20.08
2023-01-30T00:43:49.186Z,22.58
2023-01-30T00:44:22.235Z,19.98
2023-01-30T00:44:52.684Z,20.42
2023-01-30T00:45:23.490Z,19.23
2023-01-30T00:45:54.273Z,19.50
2023-01-30T00:46:35.746Z,21.02
2023-01-30T00:47:05.518Z,21.55
2023-01-30T00:47:17.563Z,20.98
2023-01-30T00:47:29.635Z,21.02
2023-01-30T00:47:44.693Z,21.70
2023-01-30T00:47:57.752Z,21.02
2023-01-30T00:48:09.739Z,20.80
2023-01-30T00:48:22.228Z,21.33
2023-01-30T00:48:34.198Z,22.23
2023-01-30T00:48:46.167Z,23.13
2023-01-30T00:49:00.700Z,22.67
2023-01-30T00:49:12.821Z,23.35
2023-01-30T00:49:24.714Z,21.55
2023-01-30T00:49:37.666Z,21.30
2023-01-30T00:49:49.594Z,21.33
2023-01-30T00:50:01.511Z,21.85
2023-01-30T00:50:13.460Z,22.10
2023-01-30T00:50:25.456Z,21.70
2023-01-30T00:50:43.465Z,20.35
2023-01-30T00:50:55.453Z,21.73
2023-01-30T00:51:07.442Z,22.23
2023-01-30T00:51:19.362Z,23.30
2023-01-30T00:51:31.247Z,22.02
2023-01-30T00:51:43.664Z,22.65
2023-01-30T00:51:58.410Z,20.00
2023-01-30T00:52:10.380Z,19.42
2023-01-30T00:52:25.284Z,21.60
2023-01-30T00:52:37.395Z,21.73
2023-01-30T00:52:49.283Z,19.67
2023-01-30T00:53:01.172Z,19.55
2023-01-30T00:53:16.504Z,20.63
2023-01-30T00:53:28.529Z,19.92
2023-01-30T00:53:42.336Z,20.08
2023-01-30T00:53:54.294Z,20.55
2023-01-30T00:54:06.340Z,20.98
2023-01-30T00:54:18.325Z,20.85
2023-01-30T00:54:31.163Z,22.40
2023-01-30T00:54:43.125Z,23.00
2023-01-30T00:54:55.026Z,21.88
2023-01-30T00:55:07.631Z,21.33
2023-01-30T00:55:19.886Z,22.20
2023-01-30T00:55:31.982Z,21.38
2023-01-30T00:55:44.939Z,21.73
2023-01-30T00:55:56.842Z,21.02
2023-01-30T00:56:08.781Z,20.90
2023-01-30T00:56:21.328Z,21.38
2023-01-30T00:56:33.329Z,22.58
2023-01-30T00:56:45.523Z,22.40
2023-01-30T00:56:57.455Z,25.63
2023-01-30T00:57:09.411Z,24.40
2023-01-30T00:57:21.309Z,21.58
2023-01-30T00:57:33.276Z,21.35
2023-01-30T00:57:45.181Z,20.30
2023-01-30T00:57:57.078Z,19.75
2023-01-30T00:58:09.665Z,21.33
2023-01-30T00:58:26.187Z,21.50
2023-01-30T00:58:38.110Z,21.13
2023-01-30T00:58:50.055Z,22.45
2023-01-30T00:59:02.179Z,22.00
2023-01-30T00:59:14.699Z,22.13
2023-01-30T00:59:27.672Z,23.42
2023-01-30T00:59:39.583Z,21.70
2023-01-30T00:59:54.483Z,21.58
2023-01-30T01:00:08.689Z,22.00
2023-01-30T01:00:20.949Z,21.77
2023-01-30T01:00:33.496Z,22.70
2023-01-30T01:00:45.392Z,23.80
2023-01-30T01:00:57.288Z,23.27
2023-01-30T01:01:09.258Z,22.58
2023-01-30T01:01:21.273Z,21.85
2023-01-30T01:01:33.472Z,22.25
2023-01-30T01:01:45.470Z,24.23
2023-01-30T01:01:57.499Z,24.38
2023-01-30T01:02:09.533Z,22.40
2023-01-30T01:02:21.559Z,21.08
2023-01-30T01:02:33.554Z,20.02
2023-01-30T01:02:45.578Z,21.75
2023-01-30T01:02:57.544Z,21.52
2023-01-30T01:03:09.627Z,20.50
2023-01-30T01:03:22.257Z,21.70
2023-01-30T01:03:34.251Z,22.30
2023-01-30T01:03:46.381Z,21.85
2023-01-30T01:03:58.284Z,20.97
2023-01-30T01:04:10.598Z,20.70
2023-01-30T01:04:22.644Z,21.35
2023-01-30T01:04:43.123Z,21.30
2023-01-30T01:04:55.080Z,21.17
2023-01-30T01:05:07.271Z,21.13
2023-01-30T01:05:19.497Z,21.50
2023-01-30T01:05:33.857Z,22.20
2023-01-30T01:05:46.451Z,22.65
2023-01-30T01:05:58.487Z,22.63
2023-01-30T01:06:10.458Z,24.67
2023-01-30T01:06:22.555Z,24.77
2023-01-30T01:06:34.730Z,23.85
2023-01-30T01:06:46.720Z,22.70
2023-01-30T01:07:01.284Z,22.15
2023-01-30T01:07:14.533Z,21.02
2023-01-30T01:07:26.893Z,20.75
2023-01-30T01:07:39.754Z,22.25
2023-01-30T01:07:51.750Z,22.23
2023-01-30T01:08:03.988Z,21.95
2023-01-30T01:08:16.075Z,22.42
2023-01-30T01:08:27.984Z,20.92
2023-01-30T01:08:39.945Z,20.58
2023-01-30T01:08:51.872Z,21.23
2023-01-30T01:09:04.446Z,21.02
2023-01-30T01:09:16.410Z,20.55
2023-01-30T01:09:28.303Z,21.95
2023-01-30T01:09:40.296Z,22.30
2023-01-30T01:09:52.242Z,20.05
2023-01-30T01:10:04.529Z,19.60
2023-01-30T01:10:16.860Z,21.05
2023-01-30T01:10:28.923Z,21.23
2023-01-30T01:10:40.852Z,20.95
2023-01-30T01:10:52.775Z,21.23
2023-01-30T01:11:04.765Z,20.67
2023-01-30T01:11:25.034Z,21.02
2023-01-30T01:11:37.110Z,18.77
2023-01-30T01:11:49.016Z,18.85
2023-01-30T01:12:00.910Z,20.08
2023-01-30T01:12:12.840Z,22.27
2023-01-30T01:12:29.131Z,21.88
2023-01-30T01:12:41.242Z,20.48
2023-01-30T01:12:55.432Z,19.42
2023-01-30T01:13:10.855Z,19.42
2023-01-30T01:13:22.909Z,21.33
2023-01-30T01:13:34.840Z,22.45
2023-01-30T01:13:50.726Z,23.42
2023-01-30T01:14:04.432Z,22.67
2023-01-30T01:14:16.432Z,21.08
2023-01-30T01:14:28.574Z,21.50
2023-01-30T01:14:40.630Z,20.42
2023-01-30T01:14:52.742Z,20.45
2023-01-30T01:15:05.289Z,19.45
2023-01-30T01:15:17.604Z,18.77
2023-01-30T01:15:30.976Z,18.90
2023-01-30T01:15:42.933Z,20.63
2023-01-30T01:15:54.901Z,20.65
2023-01-30T01:16:06.955Z,20.17
2023-01-30T01:16:19.020Z,19.75
2023-01-30T01:16:32.728Z,21.50
2023-01-30T01:16:44.668Z,23.15
2023-01-30T01:16:56.856Z,22.35
2023-01-30T01:17:09.390Z,21.25
2023-01-30T01:17:21.314Z,20.65
2023-01-30T01:17:33.200Z,21.65
2023-01-30T01:17:45.375Z,22.33
2023-01-30T01:17:57.353Z,21.27
2023-01-30T01:18:09.303Z,20.30
2023-01-30T01:18:21.235Z,19.83
2023-01-30T01:18:33.643Z,20.95
2023-01-30T01:18:45.604Z,21.05
2023-01-30T01:18:58.013Z,21.92
2023-01-30T01:19:12.521Z,21.15
2023-01-30T01:19:24.573Z,22.40
2023-01-30T01:19:36.466Z,22.60
2023-01-30T01:19:48.355Z,22.25
2023-01-30T01:20:00.304Z,22.30
2023-01-30T01:20:13.196Z,22.27
2023-01-30T01:20:25.328Z,22.48
2023-01-30T01:20:37.295Z,21.73
2023-01-30T01:20:49.245Z,21.45
2023-01-30T01:21:01.264Z,20.65
2023-01-30T01:21:13.402Z,21.42
2023-01-30T01:21:25.561Z,22.05
2023-01-30T01:21:37.510Z,22.38
2023-01-30T01:21:49.555Z,22.25
2023-01-30T01:22:01.463Z,21.45
2023-01-30T01:22:13.456Z,21.10
2023-01-30T01:22:25.402Z,22.23
2023-01-30T01:22:37.408Z,23.00
2023-01-30T01:22:53.817Z,23.08
2023-01-30T01:23:05.750Z,21.67
2023-01-30T01:23:17.737Z,22.13
2023-01-30T01:23:29.891Z,22.23
2023-01-30T01:23:41.963Z,21.02
2023-01-30T01:23:59.611Z,20.55
2023-01-30T01:24:15.773Z,20.90
2023-01-30T01:24:27.933Z,20.58
2023-01-30T01:24:39.854Z,20.50
2023-01-30T01:24:51.831Z,20.92
2023-01-30T01:25:04.566Z,21.20
2023-01-30T01:25:19.777Z,20.50
2023-01-30T01:25:32.107Z,22.10
2023-01-30T01:25:44.089Z,22.27
2023-01-30T01:25:56.024Z,22.30
2023-01-30T01:26:07.972Z,20.98
2023-01-30T01:26:21.067Z,20.33
2023-01-30T01:26:33.640Z,19.55
2023-01-30T01:26:45.764Z,19.55
2023-01-30T01:26:58.510Z,19.88
2023-01-30T01:27:10.442Z,19.48
2023-01-30T01:27:22.399Z,19.50
2023-01-30T01:27:34.331Z,21.27
2023-01-30T01:27:47.119Z,25.08
2023-01-30T01:27:59.104Z,24.15
2023-01-30T01:28:11.037Z,21.60
2023-01-30T01:28:22.976Z,19.20
2023-01-30T01:28:34.888Z,20.92
2023-01-30T01:28:46.943Z,21.73
2023-01-30T01:28:59.394Z,21.88
2023-01-30T01:29:15.977Z,22.70
2023-01-30T01:29:27.921Z,21.42
2023-01-30T01:29:42.854Z,20.80
2023-01-30T01:29:54.934Z,21.35
2023-01-30T01:30:08.163Z,22.23
2023-01-30T01:30:20.209Z,22.00
2023-01-30T01:30:32.147Z,20.70
2023-01-30T01:30:46.827Z,20.17
2023-01-30T01:30:58.694Z,21.38
2023-01-30T01:31:12.401Z,22.08
2023-01-30T01:31:25.613Z,21.23
2023-01-30T01:31:37.809Z,20.65
2023-01-30T01:31:49.865Z,20.30
2023-01-30T01:32:01.812Z,20.05
2023-01-30T01:32:13.927Z,20.13
2023-01-30T01:32:26.535Z,20.08
2023-01-30T01:32:38.484Z,20.20
2023-01-30T01:32:50.554Z,20.25
2023-01-30T01:33:02.524Z,21.63
2023-01-30T01:33:16.562Z,21.13
2023-01-30T01:33:28.706Z,22.00
2023-01-30T01:33:43.731Z,22.27
2023-01-30T01:33:55.698Z,22.77
2023-01-30T01:34:07.808Z,23.05
2023-01-30T01:34:19.747Z,24.70
2023-01-30T01:34:31.706Z,22.02
2023-01-30T01:34:43.593Z,21.10
2023-01-30T01:34:55.497Z,22.75
2023-01-30T01:35:08.051Z,23.00
2023-01-30T01:35:20.401Z,23.55
2023-01-30T01:35:32.419Z,21.65
2023-01-30T01:35:44.513Z,20.80
2023-01-30T01:35:57.184Z,20.83
2023-01-30T01:36:09.474Z,21.40
2023-01-30T01:36:49.642Z,21.00
2023-01-30T01:36:54.288Z,21.63
2023-01-30T01:37:06.611Z,21.10
2023-01-30T01:37:18.539Z,21.50
2023-01-30T01:37:30.441Z,23.63
2023-01-30T01:37:42.363Z,23.77
2023-01-30T01:37:54.893Z,23.92
2023-01-30T01:38:06.801Z,21.60
2023-01-30T01:38:18.758Z,22.38
2023-01-30T01:38:30.772Z,21.48
2023-01-30T01:38:43.245Z,21.38
2023-01-30T01:38:55.192Z,20.45
2023-01-30T01:39:07.189Z,20.42
2023-01-30T01:39:19.109Z,19.65
2023-01-30T01:39:51.003Z,19.75
2023-01-30T01:40:22.239Z,20.67
2023-01-30T01:40:52.717Z,22.33
2023-01-30T01:41:10.041Z,21.70
2023-01-30T01:41:22.026Z,22.02
2023-01-30T01:41:33.938Z,23.17
2023-01-30T01:41:46.064Z,22.67
2023-01-30T01:41:57.943Z,20.83
2023-01-30T01:42:11.396Z,19.58
2023-01-30T01:42:26.684Z,19.95
2023-01-30T01:42:39.052Z,20.95
2023-01-30T01:42:51.385Z,21.55
2023-01-30T01:43:16.027Z,21.95
2023-01-30T01:43:31.292Z,20.20
2023-01-30T01:44:04.806Z,19.63
2023-01-30T01:44:19.260Z,21.48
2023-01-30T01:45:20.642Z,19.55
2023-01-30T01:45:32.772Z,19.25
2023-01-30T01:45:47.157Z,21.15
2023-01-30T01:46:21.248Z,21.83
2023-01-30T01:46:33.255Z,20.63
2023-01-30T01:46:58.490Z,20.48
2023-01-30T01:47:10.447Z,21.17
2023-01-30T01:47:22.811Z,20.85
2023-01-30T01:47:35.344Z,19.73
2023-01-30T01:47:53.098Z,19.90
2023-01-30T01:48:32.783Z,20.77
2023-01-30T01:48:48.871Z,21.00
2023-01-30T01:49:05.837Z,23.48
2023-01-30T01:49:26.350Z,21.50
2023-01-30T01:49:38.403Z,20.77
2023-01-30T01:49:50.436Z,21.98
2023-01-30T01:50:04.287Z,22.90
2023-01-30T01:50:28.537Z,21.15
2023-01-30T01:50:46.638Z,21.00
2023-01-30T01:51:40.701Z,18.95
2023-01-30T01:52:11.477Z,24.25
2023-01-30T01:52:23.969Z,21.00
2023-01-30T01:52:35.909Z,19.67
2023-01-30T01:52:52.083Z,20.58
2023-01-30T01:53:04.635Z,22.23
2023-01-30T01:53:20.705Z,22.17
2023-01-30T01:53:42.919Z,21.30
2023-01-30T01:54:03.442Z,20.10
2023-01-30T01:54:25.968Z,20.98
2023-01-30T01:54:48.989Z,20.92
2023-01-30T01:55:04.440Z,20.73
2023-01-30T01:55:17.041Z,21.63
2023-01-30T01:55:30.366Z,19.92
2023-01-30T01:55:45.733Z,19.30
2023-01-30T01:56:00.352Z,20.80
2023-01-30T01:56:17.443Z,22.73
2023-01-30T01:56:35.566Z,25.95
2023-01-30T01:56:49.379Z,22.50
2023-01-30T01:57:05.019Z,22.50
2023-01-30T01:57:30.280Z,24.17
2023-01-30T01:57:48.845Z,20.58
2023-01-30T01:58:10.653Z,20.02
2023-01-30T01:58:29.414Z,19.73
2023-01-30T01:58:56.709Z,20.42
2023-01-30T01:59:14.142Z,20.70
2023-01-30T01:59:31.943Z,20.25
2023-01-30T01:59:53.188Z,20.85
2023-01-30T02:00:11.482Z,21.75
2023-01-30T02:00:23.759Z,20.15
2023-01-30T02:00:35.855Z,20.77
2023-01-30T02:00:49.314Z,19.95
2023-01-30T02:01:01.593Z,21.83
2023-01-30T02:01:13.949Z,20.95
2023-01-30T02:01:26.723Z,20.63
2023-01-30T02:01:38.682Z,18.90
2023-01-30T02:01:53.523Z,18.83
2023-01-30T02:02:10.541Z,18.42
2023-01-30T02:02:22.653Z,19.58
2023-01-30T02:02:34.704Z,20.92
2023-01-30T02:02:51.846Z,21.92
2023-01-30T02:03:12.557Z,23.15
2023-01-30T02:03:27.447Z,22.05
2023-01-30T02:03:45.244Z,23.40
2023-01-30T02:04:04.239Z,22.60
2023-01-30T02:04:36.339Z,20.33
2023-01-30T02:05:06.640Z,21.30
2023-01-30T02:05:22.882Z,22.50
2023-01-30T02:05:38.897Z,22.95
2023-01-30T02:05:55.509Z,21.33
2023-01-30T02:06:08.809Z,19.83
2023-01-30T02:06:22.671Z,19.15
2023-01-30T02:06:37.252Z,20.77
2023-01-30T02:06:49.292Z,20.70
2023-01-30T02:07:04.378Z,20.48
2023-01-30T02:07:19.963Z,21.65
2023-01-30T02:07:52.889Z,20.27
2023-01-30T02:08:12.031Z,20.20
2023-01-30T02:08:30.350Z,21.15
2023-01-30T02:08:47.927Z,18.90
2023-01-30T02:09:05.523Z,18.80
2023-01-30T02:09:17.435Z,19.50
2023-01-30T02:09:29.396Z,19.45
2023-01-30T02:09:41.449Z,19.48
2023-01-30T02:09:53.457Z,20.83
2023-01-30T02:10:08.593Z,20.42
2023-01-30T02:10:48.203Z,19.25
2023-01-30T02:11:06.536Z,21.97
2023-01-30T02:11:41.632Z,20.17
2023-01-30T02:11:58.787Z,19.25
2023-01-30T02:12:14.396Z,18.23
2023-01-30T02:12:26.807Z,18.33
2023-01-30T02:12:40.628Z,20.02
2023-01-30T02:12:52.676Z,20.80
2023-01-30T02:13:04.617Z,19.85
2023-01-30T02:13:16.961Z,19.40
2023-01-30T02:13:29.213Z,18.13
2023-01-30T02:13:41.132Z,19.27
2023-01-30T02:13:53.692Z,20.15
2023-01-30T02:14:06.893Z,20.38
2023-01-30T02:14:20.654Z,19.77
2023-01-30T02:14:33.932Z,18.85
2023-01-30T02:14:48.167Z,18.92
2023-01-30T02:15:01.148Z,18.33
2023-01-30T02:15:13.292Z,18.88
2023-01-30T02:15:25.342Z,19.70
2023-01-30T02:15:37.671Z,19.80
2023-01-30T02:15:50.922Z,19.65
2023-01-30T02:16:06.863Z,20.08
2023-01-30T02:16:18.858Z,19.58
2023-01-30T02:16:30.884Z,18.90
2023-01-30T02:16:46.373Z,18.45
2023-01-30T02:16:58.524Z,19.42
2023-01-30T02:17:10.605Z,19.10
2023-01-30T02:17:23.660Z,19.65
2023-01-30T02:17:35.646Z,19.83
2023-01-30T02:17:47.794Z,19.23
2023-01-30T02:17:59.849Z,17.98
2023-01-30T02:18:14.389Z,19.67
2023-01-30T02:18:28.486Z,21.08
2023-01-30T02:18:43.387Z,20.05
2023-01-30T02:18:55.712Z,19.08
2023-01-30T02:19:23.529Z,18.77
2023-01-30T02:20:06.013Z,19.13
2023-01-30T02:20:39.228Z,18.55
2023-01-30T02:21:21.787Z,19.70
2023-01-30T02:21:54.527Z,18.05
2023-01-30T02:22:30.961Z,18.42
2023-01-30T02:22:45.442Z,18.83
2023-01-30T02:23:23.903Z,20.13
2023-01-30T02:24:07.565Z,18.13
2023-01-30T02:24:56.612Z,20.67
2023-01-30T02:25:17.340Z,17.92
2023-01-30T02:25:31.977Z,18.70
2023-01-30T02:26:08.277Z,19.60
2023-01-30T02:26:57.112Z,17.70
2023-01-30T02:27:30.561Z,18.20
2023-01-30T02:28:01.112Z,17.35
2023-01-30T02:28:38.643Z,17.40
2023-01-30T02:29:30.177Z,18.75
2023-01-30T02:29:44.868Z,18.70
2023-01-30T02:30:15.402Z,19.17
2023-01-30T02:31:05.118Z,20.60
2023-01-30T02:31:27.790Z,21.52
2023-01-30T02:31:45.634Z,20.15
2023-01-30T02:32:03.544Z,19.00
2023-01-30T02:32:36.291Z,20.02
2023-01-30T02:33:12.187Z,19.23
2023-01-30T02:33:43.603Z,20.95
2023-01-30T02:34:13.864Z,17.75
2023-01-30T02:34:33.892Z,18.92
2023-01-30T02:34:51.686Z,19.75
2023-01-30T02:35:40.880Z,20.75
2023-01-30T02:36:10.470Z,20.92
2023-01-30T02:36:28.390Z,22.98
2023-01-30T02:36:52.343Z,20.55
2023-01-30T02:37:29.156Z,22.60
2023-01-30T02:38:13.310Z,18.13
2023-01-30T02:38:53.916Z,18.42
2023-01-30T02:39:21.013Z,16.00
2023-01-30T02:39:38.619Z,17.85
2023-01-30T02:40:11.021Z,19.07
2023-01-30T02:40:25.706Z,19.15
2023-01-30T02:40:49.623Z,19.08
2023-01-30T02:41:20.255Z,18.67
2023-01-30T02:41:39.014Z,17.80
2023-01-30T02:42:05.334Z,18.80
2023-01-30T02:42:23.282Z,20.40
2023-01-30T02:43:01.904Z,19.38
2023-01-30T02:43:20.299Z,19.10
2023-01-30T02:44:02.770Z,18.65
2023-01-30T02:44:27.828Z,20.30
2023-01-30T02:44:54.181Z,19.08
2023-01-30T02:45:17.803Z,18.15
2023-01-30T02:45:36.509Z,19.75
2023-01-30T02:46:03.681Z,19.35
2023-01-30T02:46:20.256Z,18.25
2023-01-30T02:46:56.628Z,18.65
2023-01-30T02:47:15.957Z,18.73
2023-01-30T02:47:44.231Z,18.95
2023-01-30T02:48:12.852Z,16.00
2023-01-30T02:48:35.766Z,17.83
2023-01-30T02:49:02.668Z,19.20
2023-01-30T02:49:23.699Z,17.77
2023-01-30T02:49:40.752Z,16.35
2023-01-30T02:50:00.626Z,19.00
2023-01-30T02:50:21.336Z,18.95
2023-01-30T02:50:44.631Z,17.40
2023-01-30T02:51:05.564Z,17.60
2023-01-30T02:51:27.528Z,17.42
2023-01-30T02:51:42.750Z,16.55
2023-01-30T02:51:58.083Z,17.30
2023-01-30T02:52:12.674Z,18.77
2023-01-30T02:52:25.387Z,19.25
2023-01-30T02:52:37.654Z,20.10
2023-01-30T02:52:49.636Z,20.88
2023-01-30T02:53:03.443Z,19.30
2023-01-30T02:53:15.429Z,18.58
2023-01-30T02:53:32.867Z,20.98
2023-01-30T02:53:47.775Z,21.75
2023-01-30T02:54:00.133Z,19.42
2023-01-30T02:54:13.173Z,17.60
2023-01-30T02:54:25.083Z,17.17
2023-01-30T02:54:36.997Z,17.15
2023-01-30T02:54:48.931Z,18.13
2023-01-30T02:55:02.543Z,19.27
2023-01-30T02:55:23.392Z,20.15
2023-01-30T02:55:35.638Z,18.40
2023-01-30T02:55:47.587Z,17.67
2023-01-30T02:55:59.817Z,18.50
2023-01-30T02:56:11.752Z,17.40
2023-01-30T02:56:23.680Z,18.30
2023-01-30T02:56:54.864Z,18.48
2023-01-30T02:57:22.352Z,17.70
2023-01-30T02:57:34.240Z,19.15
2023-01-30T02:57:46.141Z,20.50
2023-01-30T02:57:58.171Z,19.55
2023-01-30T02:58:10.703Z,19.70
2023-01-30T02:58:24.814Z,20.35
2023-01-30T02:58:43.922Z,20.20
2023-01-30T02:59:00.702Z,18.38
2023-01-30T02:59:14.862Z,19.48
2023-01-30T02:59:34.817Z,19.85
2023-01-30T02:59:51.720Z,18.02
2023-01-30T03:00:05.959Z,17.23
2023-01-30T03:00:30.997Z,18.70
2023-01-30T03:01:28.082Z,17.83
2023-01-30T03:02:12.340Z,18.60
2023-01-30T03:03:07.151Z,18.65
2023-01-30T03:03:30.994Z,18.25
2023-01-30T03:04:07.015Z,17.63
2023-01-30T03:04:44.924Z,18.17
2023-01-30T03:05:19.839Z,18.65
2023-01-30T03:05:46.081Z,20.33
2023-01-30T03:06:15.904Z,17.00
2023-01-30T03:06:58.705Z,18.02
2023-01-30T03:07:25.654Z,19.45
2023-01-30T03:08:03.839Z,20.73
2023-01-30T03:08:48.848Z,16.85
2023-01-30T03:09:15.783Z,17.55
2023-01-30T03:09:49.271Z,18.20
2023-01-30T03:10:42.759Z,17.27
2023-01-30T03:11:01.335Z,18.38
2023-01-30T03:11:13.514Z,18.17
2023-01-30T03:11:35.111Z,18.13
2023-01-30T03:11:57.113Z,20.02
2023-01-30T03:12:18.178Z,18.95
2023-01-30T03:12:39.214Z,17.08
2023-01-30T03:13:01.165Z,18.30
2023-01-30T03:13:39.421Z,17.75
2023-01-30T03:13:57.610Z,16.77
2023-01-30T03:14:26.055Z,17.80
2023-01-30T03:15:01.002Z,16.85
2023-01-30T03:15:16.959Z,17.30
2023-01-30T03:15:38.199Z,17.20
2023-01-30T03:16:13.592Z,17.55
2023-01-30T03:16:41.544Z,18.10
2023-01-30T03:16:57.468Z,19.33
2023-01-30T03:17:11.755Z,18.85
2023-01-30T03:17:26.862Z,19.13
2023-01-30T03:17:43.742Z,18.52
2023-01-30T03:17:56.062Z,17.17
2023-01-30T03:18:09.325Z,16.75
2023-01-30T03:18:21.746Z,17.90
2023-01-30T03:18:33.656Z,18.55
2023-01-30T03:18:47.539Z,18.02
2023-01-30T03:19:06.332Z,18.38
2023-01-30T03:19:19.724Z,18.40
2023-01-30T03:19:31.853Z,17.48
2023-01-30T03:19:44.235Z,17.98
2023-01-30T03:19:56.688Z,17.10
2023-01-30T03:20:10.333Z,17.90
2023-01-30T03:20:22.374Z,18.42
2023-01-30T03:20:44.367Z,18.33
2023-01-30T03:20:56.392Z,17.48
2023-01-30T03:21:08.340Z,17.00
2023-01-30T03:21:20.246Z,17.13
2023-01-30T03:21:32.146Z,16.85
2023-01-30T03:21:45.473Z,18.42
2023-01-30T03:21:57.454Z,19.38
2023-01-30T03:22:09.444Z,19.25
2023-01-30T03:22:21.631Z,19.40
2023-01-30T03:22:33.604Z,18.88
2023-01-30T03:22:45.596Z,17.38
2023-01-30T03:23:03.546Z,17.77
2023-01-30T03:23:15.521Z,18.92
2023-01-30T03:23:27.411Z,19.02
2023-01-30T03:23:39.614Z,19.52
2023-01-30T03:23:52.003Z,19.92
2023-01-30T03:24:04.059Z,19.52
2023-01-30T03:24:19.197Z,18.67
2023-01-30T03:24:31.188Z,18.08
2023-01-30T03:24:46.130Z,18.92
2023-01-30T03:24:58.268Z,19.65
2023-01-30T03:25:14.299Z,18.95
2023-01-30T03:25:29.402Z,19.08
2023-01-30T03:25:43.226Z,19.67
2023-01-30T03:25:55.207Z,19.05
2023-01-30T03:26:14.225Z,18.98
2023-01-30T03:26:30.631Z,19.42
2023-01-30T03:26:48.207Z,19.67
2023-01-30T03:27:07.915Z,19.08
2023-01-30T03:27:21.555Z,19.05
2023-01-30T03:27:34.934Z,18.50